sensor_id;sensor_type;location;lat;lon;timestamp;pressure;altitude;pressure_sealevel;temperature;humidity
5879;BME280;2965;42.640;23.370;2024-03-02T01:35:46;93905.28;;;8.06;100.00
5879;BME280;2965;42.640;23.370;2024-03-02T01:38:12;93896.03;;;8.03;100.00
5879;BME280;2965;42.640;23.370;2024-03-02T01:40:38;93899.34;;;8.12;100.00
5879;BME280;2965;42.640;23.370;2024-03-02T01:43:04;93896.25;;;8.23;100.00
5879;BME280;2965;42.640;23.370;2024-03-02T01:45:30;93897.53;;;8.13;100.00
5879;BME280;2965;42.640;23.370;2024-03-02T01:47:56;93888.00;;;8.05;100.00
5879;BME280;2965;42.640;23.370;2024-03-02T01:50:28;93887.97;;;7.98;100.00
5879;BME280;2965;42.640;23.370;2024-03-02T01:52:55;93888.41;;;8.02;100.00
5879;BME280;2965;42.640;23.370;2024-03-02T01:55:20;93890.88;;;8.10;100.00
5879;BME280;2965;42.640;23.370;2024-03-02T01:57:46;93886.91;;;8.14;100.00
5879;BME280;2965;42.640;23.370;2024-03-02T02:00:13;93887.91;;;8.28;100.00
5879;BME280;2965;42.640;23.370;2024-03-02T02:02:39;93891.72;;;8.32;100.00
5879;BME280;2965;42.640;23.370;2024-03-02T02:05:04;93894.28;;;8.25;100.00
5879;BME280;2965;42.640;23.370;2024-03-02T02:07:30;93885.56;;;8.18;100.00
5879;BME280;2965;42.640;23.370;2024-03-02T02:09:55;93893.13;;;8.13;100.00
5879;BME280;2965;42.640;23.370;2024-03-02T02:12:21;93890.31;;;8.29;100.00
5879;BME280;2965;42.640;23.370;2024-03-02T02:14:49;93884.47;;;8.27;100.00
5879;BME280;2965;42.640;23.370;2024-03-02T02:17:18;93881.13;;;8.33;100.00
5879;BME280;2965;42.640;23.370;2024-03-02T02:19:43;93879.88;;;8.29;100.00
5879;BME280;2965;42.640;23.370;2024-03-02T02:22:11;93881.84;;;8.27;100.00
5879;BME280;2965;42.640;23.370;2024-03-02T02:24:41;93882.94;;;8.33;100.00
5879;BME280;2965;42.640;23.370;2024-03-02T02:27:07;93883.53;;;8.35;100.00
5879;BME280;2965;42.640;23.370;2024-03-02T02:29:33;93880.00;;;8.21;100.00
5879;BME280;2965;42.640;23.370;2024-03-02T02:31:58;93886.38;;;8.19;100.00
5879;BME280;2965;42.640;23.370;2024-03-02T02:34:23;93886.25;;;8.42;100.00
5879;BME280;2965;42.640;23.370;2024-03-02T02:36:49;93886.34;;;8.33;100.00
5879;BME280;2965;42.640;23.370;2024-03-02T02:39:16;93885.91;;;8.30;100.00
5879;BME280;2965;42.640;23.370;2024-03-02T02:41:44;93893.38;;;8.33;100.00
5879;BME280;2965;42.640;23.370;2024-03-02T02:44:09;93890.72;;;8.48;100.00
5879;BME280;2965;42.640;23.370;2024-03-02T02:46:38;93890.13;;;8.46;100.00
5879;BME280;2965;42.640;23.370;2024-03-02T02:49:03;93890.31;;;8.29;100.00
5879;BME280;2965;42.640;23.370;2024-03-02T02:51:29;93898.09;;;8.44;100.00
5879;BME280;2965;42.640;23.370;2024-03-02T02:53:54;93897.19;;;8.52;100.00
5879;BME280;2965;42.640;23.370;2024-03-02T02:56:19;93895.81;;;8.56;100.00
5879;BME280;2965;42.640;23.370;2024-03-02T02:58:45;93889.06;;;8.62;100.00
5879;BME280;2965;42.640;23.370;2024-03-02T03:01:10;93896.88;;;8.62;100.00
5879;BME280;2965;42.640;23.370;2024-03-02T03:03:36;93898.31;;;8.64;100.00
5879;BME280;2965;42.640;23.370;2024-03-02T03:06:01;93896.56;;;8.71;100.00
5879;BME280;2965;42.640;23.370;2024-03-02T03:08:27;93894.06;;;8.63;100.00
5879;BME280;2965;42.640;23.370;2024-03-02T03:10:53;93887.88;;;8.64;100.00
5879;BME280;2965;42.640;23.370;2024-03-02T03:13:18;93893.94;;;8.71;100.00
5879;BME280;2965;42.640;23.370;2024-03-02T03:15:44;93896.75;;;8.70;100.00
5879;BME280;2965;42.640;23.370;2024-03-02T03:18:09;93891.91;;;8.67;100.00
5879;BME280;2965;42.640;23.370;2024-03-02T03:20:35;93895.84;;;8.77;100.00
5879;BME280;2965;42.640;23.370;2024-03-02T03:23:01;93888.00;;;8.77;100.00
5879;BME280;2965;42.640;23.370;2024-03-02T03:25:26;93890.84;;;8.82;100.00
5879;BME280;2965;42.640;23.370;2024-03-02T03:27:52;93894.72;;;8.87;100.00
5879;BME280;2965;42.640;23.370;2024-03-02T03:30:18;93893.72;;;8.88;100.00
5879;BME280;2965;42.640;23.370;2024-03-02T03:32:43;93893.72;;;8.88;100.00
5879;BME280;2965;42.640;23.370;2024-03-02T03:35:09;93896.44;;;8.79;100.00
5879;BME280;2965;42.640;23.370;2024-03-02T03:37:34;93893.72;;;8.66;100.00
5879;BME280;2965;42.640;23.370;2024-03-02T04:32:09;93895.94;;;8.48;100.00
5879;BME280;2965;42.640;23.370;2024-03-02T04:34:34;93897.94;;;8.46;100.00
5879;BME280;2965;42.640;23.370;2024-03-02T04:37:00;93895.94;;;8.48;100.00
5879;BME280;2965;42.640;23.370;2024-03-02T04:39:25;93900.53;;;8.46;100.00
5879;BME280;2965;42.640;23.370;2024-03-02T04:41:51;93897.78;;;8.32;100.00
5879;BME280;2965;42.640;23.370;2024-03-02T04:44:16;93907.19;;;8.33;100.00
5879;BME280;2965;42.640;23.370;2024-03-02T04:46:42;93901.09;;;8.41;100.00
5879;BME280;2965;42.640;23.370;2024-03-02T04:49:07;93897.66;;;8.41;100.00
5879;BME280;2965;42.640;23.370;2024-03-02T04:51:32;93896.41;;;8.37;100.00
5879;BME280;2965;42.640;23.370;2024-03-02T04:53:58;93902.34;;;8.30;100.00
5879;BME280;2965;42.640;23.370;2024-03-02T04:56:23;93900.91;;;8.43;100.00
5879;BME280;2965;42.640;23.370;2024-03-02T04:59:05;93905.38;;;8.49;100.00
5879;BME280;2965;42.640;23.370;2024-03-02T05:01:31;93900.16;;;8.49;100.00
5879;BME280;2965;42.640;23.370;2024-03-02T05:03:57;93905.91;;;8.59;100.00
5879;BME280;2965;42.640;23.370;2024-03-02T05:06:22;93906.38;;;8.69;100.00
5879;BME280;2965;42.640;23.370;2024-03-02T05:08:48;93909.47;;;8.79;100.00
5879;BME280;2965;42.640;23.370;2024-03-02T05:11:14;93912.41;;;8.70;100.00
5879;BME280;2965;42.640;23.370;2024-03-02T05:13:58;93912.44;;;8.76;100.00
5879;BME280;2965;42.640;23.370;2024-03-02T05:16:23;93908.88;;;8.77;100.00
5879;BME280;2965;42.640;23.370;2024-03-02T05:18:49;93915.94;;;8.83;100.00
5879;BME280;2965;42.640;23.370;2024-03-02T05:21:14;93917.41;;;8.93;100.00
5879;BME280;2965;42.640;23.370;2024-03-02T05:23:39;93925.88;;;8.95;100.00
5879;BME280;2965;42.640;23.370;2024-03-02T05:26:05;93925.09;;;8.94;100.00
5879;BME280;2965;42.640;23.370;2024-03-02T05:28:30;93924.53;;;8.99;100.00
5879;BME280;2965;42.640;23.370;2024-03-02T05:30:56;93936.69;;;8.92;100.00
5879;BME280;2965;42.640;23.370;2024-03-02T05:33:21;93934.31;;;8.97;100.00
5879;BME280;2965;42.640;23.370;2024-03-02T05:35:48;93927.13;;;8.99;100.00
5879;BME280;2965;42.640;23.370;2024-03-02T05:38:15;93938.16;;;9.01;100.00
5879;BME280;2965;42.640;23.370;2024-03-02T05:40:40;93939.41;;;9.05;100.00
5879;BME280;2965;42.640;23.370;2024-03-02T05:43:06;93945.13;;;8.94;100.00
5879;BME280;2965;42.640;23.370;2024-03-02T05:45:31;93946.59;;;9.03;100.00
5879;BME280;2965;42.640;23.370;2024-03-02T05:47:56;93951.09;;;9.09;100.00
5879;BME280;2965;42.640;23.370;2024-03-02T05:50:22;93948.84;;;9.06;100.00
5879;BME280;2965;42.640;23.370;2024-03-02T05:52:47;93948.34;;;8.96;100.00
5879;BME280;2965;42.640;23.370;2024-03-02T05:55:13;93947.84;;;9.07;100.00
5879;BME280;2965;42.640;23.370;2024-03-02T05:57:38;93951.66;;;9.04;100.00
5879;BME280;2965;42.640;23.370;2024-03-02T06:00:10;93960.09;;;9.06;100.00
5879;BME280;2965;42.640;23.370;2024-03-02T06:02:39;93952.09;;;9.08;100.00
5879;BME280;2965;42.640;23.370;2024-03-02T06:05:06;93953.50;;;9.10;100.00
5879;BME280;2965;42.640;23.370;2024-03-02T06:07:32;93946.59;;;9.03;100.00
5879;BME280;2965;42.640;23.370;2024-03-02T06:09:57;93954.06;;;9.06;100.00
5879;BME280;2965;42.640;23.370;2024-03-02T06:12:23;93950.66;;;9.05;100.00
5879;BME280;2965;42.640;23.370;2024-03-02T06:14:49;93949.59;;;9.00;100.00
5879;BME280;2965;42.640;23.370;2024-03-02T06:17:14;93956.78;;;8.98;100.00
5879;BME280;2965;42.640;23.370;2024-03-02T06:19:40;93956.66;;;8.84;100.00
5879;BME280;2965;42.640;23.370;2024-03-02T06:22:05;93957.53;;;8.70;100.00
5879;BME280;2965;42.640;23.370;2024-03-02T06:24:31;93954.31;;;8.68;100.00
5879;BME280;2965;42.640;23.370;2024-03-02T06:26:56;93952.38;;;8.55;100.00
5879;BME280;2965;42.640;23.370;2024-03-02T06:29:22;93958.59;;;8.40;100.00
5879;BME280;2965;42.640;23.370;2024-03-02T06:31:47;93954.19;;;8.40;100.00
5879;BME280;2965;42.640;23.370;2024-03-02T06:34:12;93967.22;;;8.25;100.00
5879;BME280;2965;42.640;23.370;2024-03-02T06:36:38;93961.28;;;8.31;100.00
5879;BME280;2965;42.640;23.370;2024-03-02T06:39:05;93957.06;;;8.30;100.00
5879;BME280;2965;42.640;23.370;2024-03-02T06:41:31;93965.00;;;8.37;100.00
5879;BME280;2965;42.640;23.370;2024-03-02T06:43:56;93971.03;;;8.38;100.00
5879;BME280;2965;42.640;23.370;2024-03-02T06:46:25;93965.81;;;8.38;100.00
5879;BME280;2965;42.640;23.370;2024-03-02T06:48:50;93972.63;;;8.39;100.00
5879;BME280;2965;42.640;23.370;2024-03-02T06:51:16;93962.91;;;8.32;100.00
5879;BME280;2965;42.640;23.370;2024-03-02T06:53:41;93966.06;;;8.28;100.00
5879;BME280;2965;42.640;23.370;2024-03-02T06:56:07;93969.28;;;8.30;100.00
5879;BME280;2965;42.640;23.370;2024-03-02T06:58:35;93963.63;;;8.26;100.00
5879;BME280;2965;42.640;23.370;2024-03-02T07:01:01;93966.22;;;8.26;100.00
5879;BME280;2965;42.640;23.370;2024-03-02T07:03:26;93967.28;;;8.32;100.00
5879;BME280;2965;42.640;23.370;2024-03-02T07:05:51;93976.91;;;8.31;100.00
5879;BME280;2965;42.640;23.370;2024-03-02T07:08:17;93973.88;;;8.43;100.00
5879;BME280;2965;42.640;23.370;2024-03-02T07:10:42;93973.78;;;8.51;100.00
5879;BME280;2965;42.640;23.370;2024-03-02T07:13:07;93977.63;;;8.55;100.00
5879;BME280;2965;42.640;23.370;2024-03-02T07:15:33;93975.38;;;8.52;100.00
5879;BME280;2965;42.640;23.370;2024-03-02T07:18:17;93978.50;;;8.62;100.00
5879;BME280;2965;42.640;23.370;2024-03-02T07:20:42;93982.22;;;8.53;100.00
5879;BME280;2965;42.640;23.370;2024-03-02T07:23:08;93977.56;;;8.48;100.00
5879;BME280;2965;42.640;23.370;2024-03-02T07:25:34;93985.81;;;8.52;100.00
5879;BME280;2965;42.640;23.370;2024-03-02T07:27:59;93983.28;;;8.58;100.00
5879;BME280;2965;42.640;23.370;2024-03-02T07:30:25;93977.34;;;8.65;100.00
5879;BME280;2965;42.640;23.370;2024-03-02T07:32:50;93985.31;;;8.63;100.00
5879;BME280;2965;42.640;23.370;2024-03-02T07:35:16;93991.94;;;8.59;100.00
5879;BME280;2965;42.640;23.370;2024-03-02T07:37:42;93980.50;;;8.60;100.00
5879;BME280;2965;42.640;23.370;2024-03-02T07:40:08;93983.34;;;8.65;100.00
5879;BME280;2965;42.640;23.370;2024-03-02T07:42:38;93992.31;;;8.77;100.00
5879;BME280;2965;42.640;23.370;2024-03-02T07:45:04;93994.19;;;8.83;100.00
5879;BME280;2965;42.640;23.370;2024-03-02T07:47:30;93985.09;;;8.79;100.00
5879;BME280;2965;42.640;23.370;2024-03-02T07:49:55;93992.81;;;8.88;100.00
5879;BME280;2965;42.640;23.370;2024-03-02T07:52:20;93989.22;;;8.89;100.00
5879;BME280;2965;42.640;23.370;2024-03-02T07:54:46;93999.03;;;8.87;100.00
5879;BME280;2965;42.640;23.370;2024-03-02T07:57:11;94002.50;;;8.94;100.00
5879;BME280;2965;42.640;23.370;2024-03-02T07:59:37;94000.72;;;8.94;100.00
5879;BME280;2965;42.640;23.370;2024-03-02T08:02:03;94000.09;;;8.92;100.00
5879;BME280;2965;42.640;23.370;2024-03-02T08:04:28;93998.16;;;9.01;100.00
5879;BME280;2965;42.640;23.370;2024-03-02T08:06:54;94003.03;;;9.04;100.00
5879;BME280;2965;42.640;23.370;2024-03-02T08:09:19;94006.25;;;9.06;100.00
5879;BME280;2965;42.640;23.370;2024-03-02T08:11:45;94011.09;;;9.09;100.00
5879;BME280;2965;42.640;23.370;2024-03-02T08:14:10;94009.19;;;9.18;100.00
5879;BME280;2965;42.640;23.370;2024-03-02T08:16:36;94002.75;;;9.20;100.00
5879;BME280;2965;42.640;23.370;2024-03-02T08:19:01;94011.59;;;9.19;100.00
5879;BME280;2965;42.640;23.370;2024-03-02T08:21:26;94010.84;;;9.25;100.00
5879;BME280;2965;42.640;23.370;2024-03-02T08:23:55;94016.06;;;9.25;100.00
5879;BME280;2965;42.640;23.370;2024-03-02T08:26:21;94017.44;;;9.21;100.00
5879;BME280;2965;42.640;23.370;2024-03-02T08:28:47;94006.38;;;9.19;100.00
5879;BME280;2965;42.640;23.370;2024-03-02T08:31:12;94011.53;;;9.13;100.00
5879;BME280;2965;42.640;23.370;2024-03-02T08:33:38;94004.28;;;9.08;100.00
5879;BME280;2965;42.640;23.370;2024-03-02T08:36:03;94000.59;;;9.02;100.00
5879;BME280;2965;42.640;23.370;2024-03-02T08:38:29;94003.47;;;9.07;100.00
5879;BME280;2965;42.640;23.370;2024-03-02T08:40:55;94011.03;;;9.24;100.00
5879;BME280;2965;42.640;23.370;2024-03-02T08:43:20;94008.50;;;9.30;100.00
5879;BME280;2965;42.640;23.370;2024-03-02T08:45:48;94006.84;;;9.29;100.00
5879;BME280;2965;42.640;23.370;2024-03-02T08:48:13;94006.59;;;9.46;100.00
5879;BME280;2965;42.640;23.370;2024-03-02T08:50:38;94008.84;;;9.49;100.00
5879;BME280;2965;42.640;23.370;2024-03-02T08:53:04;94003.97;;;9.46;100.00
5879;BME280;2965;42.640;23.370;2024-03-02T08:55:30;94002.69;;;9.56;100.00
5879;BME280;2965;42.640;23.370;2024-03-02T08:57:55;94001.13;;;9.62;100.00
5879;BME280;2965;42.640;23.370;2024-03-02T09:00:21;93997.22;;;9.79;100.00
5879;BME280;2965;42.640;23.370;2024-03-02T09:02:47;94003.09;;;9.88;100.00
5879;BME280;2965;42.640;23.370;2024-03-02T09:05:13;94006.97;;;9.99;100.00
5879;BME280;2965;42.640;23.370;2024-03-02T09:07:38;94007.34;;;9.96;100.00
5879;BME280;2965;42.640;23.370;2024-03-02T09:10:05;94007.44;;;10.09;100.00
5879;BME280;2965;42.640;23.370;2024-03-02T09:12:31;94017.81;;;9.96;100.00
5879;BME280;2965;42.640;23.370;2024-03-02T09:14:56;94020.13;;;10.12;100.00
5879;BME280;2965;42.640;23.370;2024-03-02T09:17:22;94011.72;;;10.17;100.00
5879;BME280;2965;42.640;23.370;2024-03-02T09:19:48;94011.84;;;10.02;100.00
5879;BME280;2965;42.640;23.370;2024-03-02T09:22:13;94017.94;;;10.16;100.00
5879;BME280;2965;42.640;23.370;2024-03-02T09:24:39;94020.50;;;10.37;100.00
5879;BME280;2965;42.640;23.370;2024-03-02T09:27:04;94024.94;;;10.43;100.00
5879;BME280;2965;42.640;23.370;2024-03-02T09:29:31;94025.75;;;10.44;100.00
5879;BME280;2965;42.640;23.370;2024-03-02T09:31:56;94024.16;;;10.43;100.00
5879;BME280;2965;42.640;23.370;2024-03-02T09:34:21;94024.28;;;10.28;100.00
5879;BME280;2965;42.640;23.370;2024-03-02T09:36:47;94023.59;;;10.19;100.00
5879;BME280;2965;42.640;23.370;2024-03-02T09:39:13;94028.50;;;10.29;100.00
5879;BME280;2965;42.640;23.370;2024-03-02T09:41:38;94024.94;;;10.37;100.00
5879;BME280;2965;42.640;23.370;2024-03-02T09:44:04;94033.38;;;10.39;100.00
5879;BME280;2965;42.640;23.370;2024-03-02T09:46:30;94026.13;;;10.34;100.00
5879;BME280;2965;42.640;23.370;2024-03-02T09:48:56;94030.34;;;10.35;100.00
5879;BME280;2965;42.640;23.370;2024-03-02T09:51:22;94028.56;;;10.42;100.00
5879;BME280;2965;42.640;23.370;2024-03-02T09:53:48;94026.03;;;10.55;100.00
5879;BME280;2965;42.640;23.370;2024-03-02T09:56:14;94033.88;;;10.62;100.00
5879;BME280;2965;42.640;23.370;2024-03-02T09:58:41;94030.00;;;10.45;100.00
5879;BME280;2965;42.640;23.370;2024-03-02T10:01:06;94031.13;;;10.29;100.00
5879;BME280;2965;42.640;23.370;2024-03-02T10:03:33;94028.38;;;10.44;100.00
5879;BME280;2965;42.640;23.370;2024-03-02T10:06:19;94030.44;;;10.55;100.00
5879;BME280;2965;42.640;23.370;2024-03-02T10:08:44;94029.44;;;10.56;100.00
5879;BME280;2965;42.640;23.370;2024-03-02T10:11:10;94032.56;;;10.31;100.00
5879;BME280;2965;42.640;23.370;2024-03-02T10:13:36;94029.56;;;10.41;100.00
5879;BME280;2965;42.640;23.370;2024-03-02T10:16:11;94027.19;;;10.46;100.00
5879;BME280;2965;42.640;23.370;2024-03-02T10:18:37;94028.59;;;10.49;100.00
5879;BME280;2965;42.640;23.370;2024-03-02T10:21:14;94031.03;;;10.57;100.00
5879;BME280;2965;42.640;23.370;2024-03-02T10:23:40;94030.69;;;10.25;100.00
5879;BME280;2965;42.640;23.370;2024-03-02T10:26:23;94031.38;;;10.41;100.00
5879;BME280;2965;42.640;23.370;2024-03-02T10:28:49;94029.00;;;10.46;100.00
5879;BME280;2965;42.640;23.370;2024-03-02T10:31:16;94024.56;;;10.46;100.00
5879;BME280;2965;42.640;23.370;2024-03-02T10:33:41;94026.09;;;10.27;100.00
5879;BME280;2965;42.640;23.370;2024-03-02T10:36:07;94020.28;;;10.04;100.00
5879;BME280;2965;42.640;23.370;2024-03-02T10:38:33;94020.97;;;10.19;100.00
5879;BME280;2965;42.640;23.370;2024-03-02T10:40:59;94025.22;;;10.20;100.00
5879;BME280;2965;42.640;23.370;2024-03-02T10:43:25;94025.69;;;10.02;100.00
5879;BME280;2965;42.640;23.370;2024-03-02T10:45:52;94019.13;;;10.13;100.00
5879;BME280;2965;42.640;23.370;2024-03-02T10:48:18;94014.00;;;10.26;100.00
5879;BME280;2965;42.640;23.370;2024-03-02T10:50:43;94018.47;;;10.04;100.00
5879;BME280;2965;42.640;23.370;2024-03-02T10:53:09;94010.75;;;9.90;100.00
5879;BME280;2965;42.640;23.370;2024-03-02T10:55:34;94010.13;;;9.88;100.00
5879;BME280;2965;42.640;23.370;2024-03-02T10:58:00;94004.75;;;9.96;100.00
5879;BME280;2965;42.640;23.370;2024-03-02T11:00:33;94014.06;;;9.77;100.00
5879;BME280;2965;42.640;23.370;2024-03-02T11:03:05;94002.91;;;9.90;100.00
5879;BME280;2965;42.640;23.370;2024-03-02T11:05:39;94005.81;;;10.08;100.00
5879;BME280;2965;42.640;23.370;2024-03-02T11:08:12;94004.66;;;10.17;100.00
5879;BME280;2965;42.640;23.370;2024-03-02T11:15:55;94004.09;;;10.22;100.00
5879;BME280;2965;42.640;23.370;2024-03-02T11:18:24;94003.19;;;9.73;100.00
5879;BME280;2965;42.640;23.370;2024-03-02T11:20:51;94001.84;;;9.56;100.00
5879;BME280;2965;42.640;23.370;2024-03-02T11:23:17;94001.00;;;9.49;100.00
5879;BME280;2965;42.640;23.370;2024-03-02T11:25:42;93995.13;;;9.40;100.00
5879;BME280;2965;42.640;23.370;2024-03-02T11:28:07;94002.69;;;9.56;100.00
5879;BME280;2965;42.640;23.370;2024-03-02T11:33:09;93989.00;;;9.54;100.00
5879;BME280;2965;42.640;23.370;2024-03-02T11:35:42;93999.16;;;9.71;100.00
5879;BME280;2965;42.640;23.370;2024-03-02T11:38:09;93999.09;;;9.64;100.00
5879;BME280;2965;42.640;23.370;2024-03-02T11:40:35;93993.16;;;9.77;100.00
5879;BME280;2965;42.640;23.370;2024-03-02T11:43:00;93997.88;;;9.60;100.00
5879;BME280;2965;42.640;23.370;2024-03-02T11:45:26;93997.88;;;9.60;100.00
5879;BME280;2965;42.640;23.370;2024-03-02T11:47:57;94000.69;;;9.58;100.00
5879;BME280;2965;42.640;23.370;2024-03-02T11:50:46;94003.97;;;9.67;100.00
5879;BME280;2965;42.640;23.370;2024-03-02T11:53:12;94002.44;;;9.79;100.00
5879;BME280;2965;42.640;23.370;2024-03-02T11:55:38;94001.72;;;9.92;100.00
5879;BME280;2965;42.640;23.370;2024-03-02T11:58:05;93996.06;;;9.89;100.00
5879;BME280;2965;42.640;23.370;2024-03-02T12:00:31;94000.09;;;9.91;100.00
5879;BME280;2965;42.640;23.370;2024-03-02T12:03:05;94002.72;;;9.63;100.00
5879;BME280;2965;42.640;23.370;2024-03-02T12:05:31;93997.53;;;9.42;100.00
5879;BME280;2965;42.640;23.370;2024-03-02T12:07:57;93998.28;;;9.35;100.00
5879;BME280;2965;42.640;23.370;2024-03-02T12:10:23;93996.53;;;9.43;100.00
5879;BME280;2965;42.640;23.370;2024-03-02T12:12:58;93999.88;;;9.58;100.00
5879;BME280;2965;42.640;23.370;2024-03-02T12:15:28;93989.56;;;9.78;100.00
5879;BME280;2965;42.640;23.370;2024-03-02T12:17:58;93992.81;;;9.86;100.00
5879;BME280;2965;42.640;23.370;2024-03-02T12:20:24;93994.84;;;9.84;100.00
5879;BME280;2965;42.640;23.370;2024-03-02T12:22:51;94003.34;;;9.65;100.00
5879;BME280;2965;42.640;23.370;2024-03-02T12:25:20;94006.81;;;9.72;100.00
5879;BME280;2965;42.640;23.370;2024-03-02T12:27:47;93995.69;;;9.92;100.00
5879;BME280;2965;42.640;23.370;2024-03-02T12:30:15;93996.53;;;9.99;100.00
5879;BME280;2965;42.640;23.370;2024-03-02T12:32:41;94000.22;;;10.11;100.00
5879;BME280;2965;42.640;23.370;2024-03-02T12:35:07;93999.38;;;10.04;100.00
5879;BME280;2965;42.640;23.370;2024-03-02T12:37:32;94000.44;;;10.16;100.00
5879;BME280;2965;42.640;23.370;2024-03-02T12:39:58;93997.31;;;9.93;100.00
5879;BME280;2965;42.640;23.370;2024-03-02T12:42:24;93998.78;;;10.02;100.00
5879;BME280;2965;42.640;23.370;2024-03-02T12:44:53;94001.47;;;10.22;100.00
5879;BME280;2965;42.640;23.370;2024-03-02T12:47:21;94000.75;;;10.28;100.00
5879;BME280;2965;42.640;23.370;2024-03-02T12:49:46;94003.84;;;10.10;100.00
5879;BME280;2965;42.640;23.370;2024-03-02T12:52:13;93999.06;;;10.20;100.00
5879;BME280;2965;42.640;23.370;2024-03-02T12:54:38;94003.06;;;10.16;100.00
5879;BME280;2965;42.640;23.370;2024-03-02T12:57:04;94011.22;;;10.28;100.00
5879;BME280;2965;42.640;23.370;2024-03-02T12:59:30;94005.63;;;10.44;100.00
5879;BME280;2965;42.640;23.370;2024-03-02T13:01:56;94006.91;;;10.55;100.00
5879;BME280;2965;42.640;23.370;2024-03-02T13:04:28;94012.31;;;10.47;100.00
5879;BME280;2965;42.640;23.370;2024-03-02T13:06:54;94017.38;;;10.55;100.00
5879;BME280;2965;42.640;23.370;2024-03-02T13:09:21;94008.13;;;10.59;100.00
5879;BME280;2965;42.640;23.370;2024-03-02T13:11:47;94011.13;;;10.56;100.00
5879;BME280;2965;42.640;23.370;2024-03-02T13:14:13;94012.94;;;10.55;100.00
5879;BME280;2965;42.640;23.370;2024-03-02T13:16:39;94010.38;;;10.69;100.00
5879;BME280;2965;42.640;23.370;2024-03-02T13:19:07;94019.03;;;10.69;100.00
5879;BME280;2965;42.640;23.370;2024-03-02T13:21:33;94012.19;;;10.68;100.00
5879;BME280;2965;42.640;23.370;2024-03-02T13:23:58;94012.56;;;10.65;100.00
5879;BME280;2965;42.640;23.370;2024-03-02T13:26:25;94008.66;;;10.41;100.00
5879;BME280;2965;42.640;23.370;2024-03-02T13:28:51;94013.53;;;10.16;100.00
5879;BME280;2965;42.640;23.370;2024-03-02T13:31:16;94015.81;;;9.98;100.00
5879;BME280;2965;42.640;23.370;2024-03-02T13:33:42;94012.22;;;9.99;100.00
5879;BME280;2965;42.640;23.370;2024-03-02T13:36:07;94018.81;;;9.95;100.00
5879;BME280;2965;42.640;23.370;2024-03-02T13:38:33;94020.00;;;9.92;100.00
5879;BME280;2965;42.640;23.370;2024-03-02T13:40:58;94013.31;;;10.18;100.00
5879;BME280;2965;42.640;23.370;2024-03-02T13:43:26;94018.06;;;10.35;100.00
5879;BME280;2965;42.640;23.370;2024-03-02T13:45:52;94021.75;;;10.48;100.00
5879;BME280;2965;42.640;23.370;2024-03-02T13:48:18;94026.03;;;10.62;100.00
5879;BME280;2965;42.640;23.370;2024-03-02T13:50:44;94020.63;;;10.70;100.00
5879;BME280;2965;42.640;23.370;2024-03-02T13:53:10;94036.06;;;10.52;100.00
5879;BME280;2965;42.640;23.370;2024-03-02T13:55:37;94035.25;;;10.58;100.00
5879;BME280;2965;42.640;23.370;2024-03-02T13:58:03;94032.63;;;10.45;100.00
5879;BME280;2965;42.640;23.370;2024-03-02T14:00:28;94027.22;;;10.18;100.00
5879;BME280;2965;42.640;23.370;2024-03-02T14:02:55;94026.97;;;10.13;100.00
5879;BME280;2965;42.640;23.370;2024-03-02T14:05:20;94031.72;;;10.03;100.00
5879;BME280;2965;42.640;23.370;2024-03-02T14:07:46;94028.25;;;9.96;100.00
5879;BME280;2965;42.640;23.370;2024-03-02T14:10:11;94028.69;;;9.99;100.00
5879;BME280;2965;42.640;23.370;2024-03-02T14:12:37;94042.72;;;9.92;100.00
5879;BME280;2965;42.640;23.370;2024-03-02T14:15:03;94034.16;;;9.76;100.00
5879;BME280;2965;42.640;23.370;2024-03-02T14:17:29;94038.16;;;9.72;100.00
5879;BME280;2965;42.640;23.370;2024-03-02T14:19:57;94040.53;;;9.67;100.00
5879;BME280;2965;42.640;23.370;2024-03-02T14:22:24;94039.28;;;9.63;100.00
5879;BME280;2965;42.640;23.370;2024-03-02T14:24:49;94041.31;;;9.68;100.00
5879;BME280;2965;42.640;23.370;2024-03-02T15:01:29;94055.75;;;10.89;100.00
5879;BME280;2965;42.640;23.370;2024-03-02T15:03:54;94054.84;;;10.75;100.00
5879;BME280;2965;42.640;23.370;2024-03-02T15:06:20;94059.13;;;10.76;100.00
5879;BME280;2965;42.640;23.370;2024-03-02T15:08:45;94056.94;;;10.86;100.00
5879;BME280;2965;42.640;23.370;2024-03-02T15:11:12;94063.00;;;10.94;100.00
5879;BME280;2965;42.640;23.370;2024-03-02T15:13:38;94064.63;;;10.95;100.00
5879;BME280;2965;42.640;23.370;2024-03-02T15:16:03;94057.34;;;10.97;100.00
5879;BME280;2965;42.640;23.370;2024-03-02T15:18:29;94055.34;;;10.92;100.00
5879;BME280;2965;42.640;23.370;2024-03-02T15:20:54;94058.97;;;10.91;100.00
5879;BME280;2965;42.640;23.370;2024-03-02T15:23:20;94066.16;;;10.82;100.00
5879;BME280;2965;42.640;23.370;2024-03-02T15:25:45;94067.78;;;10.83;100.00
5879;BME280;2965;42.640;23.370;2024-03-02T15:28:11;94069.00;;;10.88;100.00
5879;BME280;2965;42.640;23.370;2024-03-02T15:30:36;94076.09;;;10.94;100.00
5879;BME280;2965;42.640;23.370;2024-03-02T15:33:01;94067.06;;;11.03;100.00
5879;BME280;2965;42.640;23.370;2024-03-02T15:35:27;94071.50;;;11.09;100.00
5879;BME280;2965;42.640;23.370;2024-03-02T15:37:52;94074.94;;;11.16;100.00
5879;BME280;2965;42.640;23.370;2024-03-02T15:40:18;94069.94;;;11.21;100.00
5879;BME280;2965;42.640;23.370;2024-03-02T15:42:43;94064.06;;;11.19;100.00
5879;BME280;2965;42.640;23.370;2024-03-02T15:45:08;94062.47;;;11.11;100.00
5879;BME280;2965;42.640;23.370;2024-03-02T15:47:34;94058.63;;;11.07;100.00
5879;BME280;2965;42.640;23.370;2024-03-02T15:50:04;94066.28;;;11.16;100.00
5879;BME280;2965;42.640;23.370;2024-03-02T15:52:30;94067.88;;;11.10;100.00
5879;BME280;2965;42.640;23.370;2024-03-02T15:54:55;94068.03;;;11.02;100.00
5879;BME280;2965;42.640;23.370;2024-03-02T15:57:21;94077.47;;;10.90;100.00
5879;BME280;2965;42.640;23.370;2024-03-02T15:59:48;94075.44;;;10.85;100.00
5879;BME280;2965;42.640;23.370;2024-03-02T16:02:13;94072.41;;;10.81;100.00
5879;BME280;2965;42.640;23.370;2024-03-02T16:04:39;94079.41;;;10.74;100.00
5879;BME280;2965;42.640;23.370;2024-03-02T16:07:04;94077.81;;;10.73;100.00
5879;BME280;2965;42.640;23.370;2024-03-02T16:09:30;94079.41;;;10.74;100.00
5879;BME280;2965;42.640;23.370;2024-03-02T16:11:55;94083.41;;;10.70;100.00